Niagara Airport

*Note: All times are displayed in the local standard time of the station location.
**Rain - Equipment is designed to accurately record liquid precipitation; under conditions when precipitation is not in liquid form, the data displayed may not properly reflect rainfall values.

Date Max Temp
(°C)
Min Temp
(°C)
Avg Temp
(°C)
Rain (mm) Avg RH (%)
Fri, Dec 14, 2018 6.4 2.0 3.9 2.0 80.9
Thu, Dec 13, 2018 6.8 -2.7 1.1 0.2 88.5
Wed, Dec 12, 2018 1.5 -4.6 -0.7 0.0 82.9
Tue, Dec 11, 2018 0.2 -1.7 -0.9 0.0 79.7
Mon, Dec 10, 2018 1.1 -2.2 -0.6 0.0 78.4
Sun, Dec 09, 2018 0.9 -7.7 -2.4 0.0 73.6
Sat, Dec 08, 2018 0.1 -6.1 -3.0 0.0 73.5
DateTime Avg Temp (°C) Rain (mm) RH (%)
Sat, Dec 15, 2018 17:00 2.8 0.0 85.5
Sat, Dec 15, 2018 16:00 3.3 0.0 83.6
Sat, Dec 15, 2018 15:00 3.7 0.0 82.0
Sat, Dec 15, 2018 14:00 4.0 0.0 81.0
Sat, Dec 15, 2018 13:00 4.2 0.0 79.4
Sat, Dec 15, 2018 12:00 3.8 0.0 82.7
Sat, Dec 15, 2018 11:00 3.0 0.0 89.6
Sat, Dec 15, 2018 10:00 2.2 0.0 95.6
Sat, Dec 15, 2018 09:00 1.2 0.0 99.2
Sat, Dec 15, 2018 08:00 0.9 0.0 99.9
Sat, Dec 15, 2018 07:00 1.1 0.0 99.9
Sat, Dec 15, 2018 06:00 0.3 0.0 99.9
Sat, Dec 15, 2018 05:00 -0.2 0.0 98.4
Sat, Dec 15, 2018 04:00 0.4 0.0 96.9
Sat, Dec 15, 2018 03:00 1.2 0.0 94.2
Sat, Dec 15, 2018 02:00 2.5 0.0 90.0
Sat, Dec 15, 2018 01:00 3.0 0.0 89.1
Sat, Dec 15, 2018 00:00 4.3 0.0 85.7
Fri, Dec 14, 2018 23:00 4.5 0.0 85.1
Fri, Dec 14, 2018 22:00 4.3 0.0 84.7
Fri, Dec 14, 2018 21:00 4.2 0.0 85.0
Fri, Dec 14, 2018 20:00 3.8 0.0 87.6
Fri, Dec 14, 2018 19:00 2.8 0.0 85.4
Fri, Dec 14, 2018 18:00 3.4 0.0 79.8
Fri, Dec 14, 2018 17:00 5.5 0.0 71.5
Fri, Dec 14, 2018 16:00 6.3 0.0 71.3
Fri, Dec 14, 2018 15:00 6.0 0.0 76.2
Fri, Dec 14, 2018 14:00 5.3 0.0 80.6
Fri, Dec 14, 2018 13:00 4.8 0.0 82.6
Fri, Dec 14, 2018 12:00 4.2 0.4 87.0
Fri, Dec 14, 2018 11:00 4.2 1.4 85.3
Fri, Dec 14, 2018 10:00 4.3 0.2 78.1
Fri, Dec 14, 2018 09:00 4.3 0.0 75.6
Fri, Dec 14, 2018 08:00 3.8 0.0 78.3
Fri, Dec 14, 2018 07:00 3.3 0.0 79.3
Fri, Dec 14, 2018 06:00 2.8 0.0 79.5
Fri, Dec 14, 2018 05:00 2.5 0.0 79.8
Fri, Dec 14, 2018 04:00 2.6 0.0 78.3
Fri, Dec 14, 2018 03:00 2.2 0.0 80.7
Fri, Dec 14, 2018 02:00 2.1 0.0 82.4
Fri, Dec 14, 2018 01:00 2.3 0.0 81.5
Fri, Dec 14, 2018 00:00 2.4 0.0 80.4
Thu, Dec 13, 2018 23:00 2.2 0.0 81.4
Thu, Dec 13, 2018 22:00 0.6 0.0 89.1
Thu, Dec 13, 2018 21:00 1.5 0.0 87.7
Thu, Dec 13, 2018 20:00 1.8 0.0 87.1
Thu, Dec 13, 2018 19:00 2.2 0.0 85.1
Thu, Dec 13, 2018 18:00 2.1 0.0 85.4


asterix Register now to access more data! asterix